createdAt,value
2018-06-09T00:00:16.818Z,96.70
2018-06-09T00:01:22.338Z,96.66
2018-06-09T00:02:27.856Z,96.66
2018-06-09T00:03:33.363Z,96.70
2018-06-09T00:04:38.882Z,96.66
2018-06-09T00:05:44.406Z,96.17
2018-06-09T00:06:49.926Z,95.89
2018-06-09T00:07:55.442Z,96.08
2018-06-09T00:09:00.959Z,96.08
2018-06-09T00:10:06.478Z,95.89
2018-06-09T00:11:12.005Z,95.98
2018-06-09T00:12:17.527Z,96.17
2018-06-09T00:13:23.032Z,96.46
2018-06-09T00:14:28.556Z,95.79
2018-06-09T00:15:34.067Z,95.98
2018-06-09T00:16:39.585Z,95.98
2018-06-09T00:17:45.104Z,95.79
2018-06-09T00:18:50.620Z,95.79
2018-06-09T00:19:56.152Z,95.98
2018-06-09T00:21:01.659Z,95.89
2018-06-09T00:22:07.187Z,95.79
2018-06-09T00:23:12.704Z,95.59
2018-06-09T00:24:18.221Z,95.59
2018-06-09T00:25:23.737Z,95.69
2018-06-09T00:26:29.257Z,95.98
2018-06-09T00:27:34.776Z,96.17
2018-06-09T00:28:40.305Z,95.89
2018-06-09T00:29:45.814Z,96.08
2018-06-09T00:30:51.339Z,96.17
2018-06-09T00:31:56.846Z,96.37
2018-06-09T00:33:02.370Z,96.32
2018-06-09T00:34:07.888Z,96.08
2018-06-09T00:35:13.406Z,96.56
2018-06-09T00:36:18.916Z,96.37
2018-06-09T00:37:24.445Z,96.66
2018-06-09T00:38:29.960Z,96.37
2018-06-09T00:39:35.475Z,96.61
2018-06-09T00:40:40.995Z,96.66
2018-06-09T00:41:46.509Z,96.56
2018-06-09T00:42:52.033Z,96.42
2018-06-09T00:43:57.553Z,96.51
2018-06-09T00:45:03.062Z,96.80
2018-06-09T00:46:08.581Z,96.89
2018-06-09T00:47:14.109Z,96.42
2018-06-09T00:48:19.626Z,96.42
2018-06-09T00:49:25.143Z,96.70
2018-06-09T00:50:30.672Z,96.80
2018-06-09T00:51:36.173Z,96.80
2018-06-09T00:52:41.717Z,96.22
2018-06-09T00:53:47.214Z,96.51
2018-06-09T00:54:52.735Z,96.80
2018-06-09T00:55:58.248Z,96.42
2018-06-09T00:57:03.777Z,95.64
2018-06-09T00:58:09.280Z,96.12
2018-06-09T00:59:14.803Z,96.51
2018-06-09T01:00:20.320Z,96.89
2018-06-09T01:01:25.845Z,96.42
2018-06-09T01:02:31.421Z,96.32
2018-06-09T01:03:36.872Z,96.32
2018-06-09T01:04:42.392Z,96.51
2018-06-09T01:05:47.909Z,96.61
2018-06-09T01:06:53.427Z,96.80
2018-06-09T01:07:58.963Z,96.89
2018-06-09T01:09:04.473Z,96.99
2018-06-09T01:10:09.987Z,97.47
2018-06-09T01:11:15.509Z,96.89
2018-06-09T01:12:21.022Z,96.51
2018-06-09T01:13:26.548Z,97.38
2018-06-09T01:14:32.056Z,96.89
2018-06-09T01:15:37.583Z,97.38
2018-06-09T01:16:43.095Z,97.38
2018-06-09T01:17:48.610Z,97.38
2018-06-09T01:18:54.127Z,96.89
2018-06-09T01:19:59.652Z,97.28
2018-06-09T01:21:05.166Z,96.99
2018-06-09T01:22:10.687Z,97.28
2018-06-09T01:23:16.204Z,96.70
2018-06-09T01:24:21.719Z,96.99
2018-06-09T01:25:27.235Z,96.51
2018-06-09T01:26:32.755Z,96.61
2018-06-09T01:27:38.284Z,96.61
2018-06-09T01:28:43.798Z,96.80
2018-06-09T01:29:49.326Z,96.51
2018-06-09T01:30:54.828Z,97.09
2018-06-09T01:32:00.347Z,96.99
2018-06-09T01:33:05.866Z,96.99
2018-06-09T01:34:11.382Z,97.28
2018-06-09T01:35:16.910Z,97.19
2018-06-09T01:36:22.420Z,97.38
2018-06-09T01:37:27.936Z,96.80
2018-06-09T01:38:33.464Z,96.99
2018-06-09T01:39:38.973Z,96.80
2018-06-09T01:40:44.495Z,97.09
2018-06-09T01:41:50.012Z,96.61
2018-06-09T01:42:55.527Z,96.80
2018-06-09T01:44:01.046Z,96.61
2018-06-09T01:45:06.566Z,96.70
2018-06-09T01:46:12.085Z,96.80
2018-06-09T01:47:17.606Z,96.99
2018-06-09T01:48:23.120Z,96.70
2018-06-09T01:49:28.634Z,97.28
2018-06-09T01:50:34.154Z,97.38
2018-06-09T01:51:39.670Z,96.70
2018-06-09T01:52:45.200Z,96.51
2018-06-09T01:53:50.714Z,96.51
2018-06-09T01:54:56.233Z,96.42
2018-06-09T01:56:01.749Z,95.84
2018-06-09T01:57:07.262Z,95.84
2018-06-09T01:58:12.784Z,96.22
2018-06-09T01:59:18.307Z,95.45
2018-06-09T02:00:23.819Z,95.26
2018-06-09T02:01:29.339Z,95.36
2018-06-09T02:02:34.854Z,94.49
2018-06-09T02:03:40.380Z,94.87
2018-06-09T02:04:45.901Z,94.15
2018-06-09T02:05:51.413Z,94.15
2018-06-09T02:06:56.933Z,94.73
2018-06-09T02:08:02.449Z,94.59
2018-06-09T02:09:07.967Z,94.92
2018-06-09T02:10:13.576Z,94.34
2018-06-09T02:11:18.998Z,94.34
2018-06-09T02:12:24.521Z,94.44
2018-06-09T02:13:30.086Z,94.15
2018-06-09T02:14:35.558Z,93.77
2018-06-09T02:15:41.073Z,93.77
2018-06-09T02:16:46.592Z,93.38
2018-06-09T02:17:52.105Z,93.00
2018-06-09T02:18:57.632Z,93.00
2018-06-09T02:20:03.150Z,92.80
2018-06-09T02:21:08.659Z,92.22
2018-06-09T02:22:14.177Z,92.32
2018-06-09T02:23:19.694Z,92.03
2018-06-09T02:24:25.217Z,92.61
2018-06-09T02:25:30.743Z,91.84
2018-06-09T02:26:36.252Z,92.13
2018-06-09T02:27:41.769Z,91.65
2018-06-09T02:28:47.297Z,91.80
2018-06-09T02:29:52.809Z,91.99
2018-06-09T02:30:58.324Z,91.89
2018-06-09T02:32:03.844Z,92.08
2018-06-09T02:33:09.358Z,92.13
2018-06-09T02:34:14.880Z,91.70
2018-06-09T02:35:20.391Z,91.89
2018-06-09T02:36:25.910Z,91.70
2018-06-09T02:37:31.427Z,91.99
2018-06-09T02:38:36.948Z,91.99
2018-06-09T02:39:42.469Z,92.08
2018-06-09T02:40:47.985Z,92.08
2018-06-09T02:41:53.502Z,91.70
2018-06-09T02:42:59.019Z,91.51
2018-06-09T02:44:04.543Z,91.51
2018-06-09T02:45:10.056Z,92.28
2018-06-09T02:46:15.571Z,91.99
2018-06-09T02:47:21.086Z,92.66
2018-06-09T02:48:26.605Z,92.28
2018-06-09T02:49:32.142Z,92.08
2018-06-09T02:50:37.643Z,91.60
2018-06-09T02:51:43.163Z,91.51
2018-06-09T02:52:48.689Z,91.99
2018-06-09T02:53:54.194Z,92.18
2018-06-09T02:54:59.716Z,91.89
2018-06-09T02:56:05.230Z,91.51
2018-06-09T02:57:10.745Z,91.66
2018-06-09T02:58:16.286Z,91.75
2018-06-09T02:59:21.781Z,91.99
2018-06-09T03:00:27.296Z,91.85
2018-06-09T03:01:32.824Z,91.66
2018-06-09T03:02:38.342Z,91.36
2018-06-09T03:03:43.847Z,91.46
2018-06-09T03:04:49.369Z,91.36
2018-06-09T03:05:54.887Z,91.46
2018-06-09T03:07:00.405Z,91.85
2018-06-09T03:08:05.918Z,91.46
2018-06-09T03:09:11.439Z,91.85
2018-06-09T03:10:16.958Z,90.69
2018-06-09T03:11:22.480Z,90.21
2018-06-09T03:12:27.989Z,90.31
2018-06-09T03:13:33.514Z,90.50
2018-06-09T03:14:39.026Z,89.44
2018-06-09T03:15:44.549Z,89.73
2018-06-09T03:16:50.069Z,88.87
2018-06-09T03:17:55.578Z,89.06
2018-06-09T03:19:01.095Z,88.77
2018-06-09T03:20:06.614Z,87.90
2018-06-09T03:21:12.125Z,88.00
2018-06-09T03:22:17.647Z,88.19
2018-06-09T03:23:23.167Z,88.67
2018-06-09T03:24:28.696Z,88.96
2018-06-09T03:25:34.195Z,89.06
2018-06-09T03:26:39.713Z,89.54
2018-06-09T03:27:45.235Z,90.12
2018-06-09T03:28:50.760Z,90.21
2018-06-09T03:29:56.263Z,89.83
2018-06-09T03:31:01.782Z,90.41
2018-06-09T03:32:07.300Z,90.12
2018-06-09T03:33:12.817Z,90.12
2018-06-09T03:34:18.347Z,90.12
2018-06-09T03:35:23.856Z,89.25
2018-06-09T03:36:29.376Z,88.96
2018-06-09T03:37:34.883Z,89.06
2018-06-09T03:38:40.412Z,88.87
2018-06-09T03:39:45.924Z,88.57
2018-06-09T03:40:51.437Z,88.48
2018-06-09T03:41:56.955Z,88.29
2018-06-09T03:43:02.479Z,88.19
2018-06-09T03:44:07.997Z,87.90
2018-06-09T03:45:13.506Z,88.77
2018-06-09T03:46:19.093Z,88.10
2018-06-09T03:47:24.539Z,88.19
2018-06-09T03:48:30.055Z,88.10
2018-06-09T03:49:35.582Z,88.10
2018-06-09T03:50:41.094Z,87.90
2018-06-09T03:51:46.609Z,88.10
2018-06-09T03:52:52.125Z,86.94
2018-06-09T03:53:57.648Z,86.65
2018-06-09T03:55:03.160Z,87.52
2018-06-09T03:56:08.679Z,87.13
2018-06-09T03:57:14.195Z,88.29
2018-06-09T03:58:19.719Z,88.10
2018-06-09T03:59:25.242Z,88.57
2018-06-09T04:00:30.748Z,88.67
2018-06-09T04:01:36.270Z,88.87
2018-06-09T04:02:41.788Z,88.77
2018-06-09T04:03:47.296Z,88.77
2018-06-09T04:04:52.816Z,89.54
2018-06-09T04:05:58.336Z,89.35
2018-06-09T04:07:03.852Z,89.64
2018-06-09T04:08:09.372Z,90.02
2018-06-09T04:09:14.886Z,90.21
2018-06-09T04:10:20.413Z,89.83
2018-06-09T04:11:25.923Z,89.64
2018-06-09T04:12:31.436Z,89.92
2018-06-09T04:13:36.956Z,90.02
2018-06-09T04:14:42.476Z,90.12
2018-06-09T04:15:47.996Z,89.44
2018-06-09T04:16:53.506Z,89.35
2018-06-09T04:17:59.022Z,89.06
2018-06-09T04:19:04.543Z,89.25
2018-06-09T04:20:10.055Z,89.58
2018-06-09T04:21:15.580Z,90.21
2018-06-09T04:22:21.090Z,89.35
2018-06-09T04:23:26.607Z,89.49
2018-06-09T04:24:32.128Z,89.44
2018-06-09T04:25:37.656Z,89.58
2018-06-09T04:26:43.162Z,88.48
2018-06-09T04:27:48.698Z,88.33
2018-06-09T04:28:54.201Z,87.90
2018-06-09T04:29:59.713Z,87.95
2018-06-09T04:31:05.240Z,87.08
2018-06-09T04:32:10.748Z,87.46
2018-06-09T04:33:16.267Z,87.46
2018-06-09T04:34:21.787Z,87.46
2018-06-09T04:35:27.304Z,87.37
2018-06-09T04:36:32.816Z,87.08
2018-06-09T04:37:38.346Z,87.76
2018-06-09T04:38:43.854Z,87.85
2018-06-09T04:39:49.422Z,87.76
2018-06-09T04:40:54.888Z,87.76
2018-06-09T04:42:00.408Z,87.37
2018-06-09T04:43:05.939Z,86.79
2018-06-09T04:44:11.446Z,87.27
2018-06-09T04:45:16.959Z,87.66
2018-06-09T04:46:22.504Z,87.46
2018-06-09T04:47:27.991Z,87.76
2018-06-09T04:48:33.521Z,87.95
2018-06-09T04:49:39.030Z,88.14
2018-06-09T04:50:44.543Z,87.95
2018-06-09T04:51:50.063Z,87.27
2018-06-09T04:52:55.580Z,87.46
2018-06-09T04:54:01.097Z,87.08
2018-06-09T04:55:06.618Z,87.27
2018-06-09T04:56:12.136Z,87.66
2018-06-09T04:57:17.649Z,87.76
2018-06-09T04:58:23.217Z,88.14
2018-06-09T04:59:28.682Z,87.95
2018-06-09T05:00:34.204Z,87.66
2018-06-09T05:01:39.717Z,86.99
2018-06-09T05:02:45.238Z,86.22
2018-06-09T05:03:50.763Z,86.31
2018-06-09T05:04:56.276Z,86.99
2018-06-09T05:06:01.788Z,86.60
2018-06-09T05:07:07.310Z,86.89
2018-06-09T05:08:12.824Z,86.99
2018-06-09T05:09:18.342Z,87.08
2018-06-09T05:10:23.859Z,86.41
2018-06-09T05:11:29.375Z,86.02
2018-06-09T05:12:34.897Z,85.16
2018-06-09T05:13:40.415Z,85.35
2018-06-09T05:14:45.928Z,84.77
2018-06-09T05:15:51.447Z,84.58
2018-06-09T05:16:56.968Z,84.87
2018-06-09T05:18:02.483Z,84.97
2018-06-09T05:19:08.015Z,84.58
2018-06-09T05:20:13.521Z,83.91
2018-06-09T05:21:19.034Z,83.23
2018-06-09T05:22:24.557Z,83.04
2018-06-09T05:23:30.066Z,83.23
2018-06-09T05:24:35.583Z,84.29
2018-06-09T05:25:41.109Z,83.91
2018-06-09T05:26:46.620Z,83.62
2018-06-09T05:27:52.147Z,83.72
2018-06-09T05:28:57.653Z,83.42
2018-06-09T05:30:03.173Z,83.72
2018-06-09T05:31:08.692Z,83.42
2018-06-09T05:32:14.211Z,84.33
2018-06-09T05:33:19.723Z,84.29
2018-06-09T05:34:25.245Z,83.04
2018-06-09T05:35:30.767Z,83.04
2018-06-09T05:36:36.284Z,83.47
2018-06-09T05:37:41.803Z,83.14
2018-06-09T05:38:47.309Z,82.75
2018-06-09T05:39:52.829Z,83.47
2018-06-09T05:40:58.353Z,83.75
2018-06-09T05:42:03.872Z,83.56
2018-06-09T05:43:09.383Z,83.37
2018-06-09T05:44:14.903Z,83.66
2018-06-09T05:45:20.417Z,83.95
2018-06-09T05:46:25.936Z,84.23
2018-06-09T05:47:31.457Z,83.95
2018-06-09T05:48:36.978Z,82.70
2018-06-09T05:49:42.495Z,82.89
2018-06-09T05:50:48.006Z,82.79
2018-06-09T05:51:53.525Z,83.75
2018-06-09T05:52:59.056Z,83.47
2018-06-09T05:54:04.562Z,82.79
2018-06-09T05:55:10.076Z,83.28
2018-06-09T05:56:15.596Z,83.56
2018-06-09T05:57:21.114Z,83.08
2018-06-09T05:58:26.627Z,83.08
2018-06-09T05:59:32.151Z,81.93
2018-06-09T06:00:37.670Z,81.45
2018-06-09T06:01:43.184Z,81.83
2018-06-09T06:02:48.709Z,82.06
2018-06-09T06:03:54.263Z,81.83
2018-06-09T06:04:59.735Z,81.25
2018-06-09T06:06:05.258Z,81.73
2018-06-09T06:07:10.775Z,81.58
2018-06-09T06:08:16.289Z,81.35
2018-06-09T06:09:21.805Z,81.01
2018-06-09T06:10:27.322Z,81.29
2018-06-09T06:11:32.839Z,81.01
2018-06-09T06:12:38.368Z,81.01
2018-06-09T06:13:43.874Z,81.20
2018-06-09T06:14:49.401Z,81.48
2018-06-09T06:15:54.913Z,81.39
2018-06-09T06:17:00.436Z,80.91
2018-06-09T06:18:05.953Z,81.77
2018-06-09T06:19:11.472Z,80.91
2018-06-09T06:20:16.994Z,80.62
2018-06-09T06:21:22.505Z,80.81
2018-06-09T06:22:28.025Z,80.91
2018-06-09T06:23:33.542Z,81.10
2018-06-09T06:24:39.056Z,81.01
2018-06-09T06:25:44.572Z,81.29
2018-06-09T06:26:50.104Z,80.43
2018-06-09T06:27:55.607Z,80.14
2018-06-09T06:29:01.125Z,80.04
2018-06-09T06:30:06.655Z,79.27
2018-06-09T06:31:12.170Z,79.66
2018-06-09T06:32:17.685Z,79.69
2018-06-09T06:33:23.198Z,78.79
2018-06-09T06:34:28.721Z,78.50
2018-06-09T06:35:34.239Z,78.88
2018-06-09T06:36:39.754Z,78.92
2018-06-09T06:37:45.275Z,79.11
2018-06-09T06:38:50.790Z,79.69
2018-06-09T06:39:56.310Z,79.11
2018-06-09T06:41:01.826Z,79.89
2018-06-09T06:42:07.352Z,79.69
2018-06-09T06:43:12.863Z,79.21
2018-06-09T06:44:18.387Z,79.21
2018-06-09T06:45:23.903Z,78.34
2018-06-09T06:46:29.416Z,79.11
2018-06-09T06:47:34.934Z,80.08
2018-06-09T06:48:40.467Z,79.89
2018-06-09T06:49:45.972Z,79.11
2018-06-09T06:50:51.495Z,79.69
2018-06-09T06:51:57.008Z,79.11
2018-06-09T06:53:02.522Z,78.34
2018-06-09T06:54:08.089Z,78.83
2018-06-09T06:55:13.557Z,79.02
2018-06-09T06:56:19.083Z,78.44
2018-06-09T06:57:24.614Z,78.34
2018-06-09T06:58:30.111Z,77.76
2018-06-09T06:59:35.630Z,77.76
2018-06-09T07:00:41.150Z,77.86
2018-06-09T07:01:46.670Z,77.96
2018-06-09T07:02:52.196Z,78.00
2018-06-09T07:03:57.703Z,78.34
2018-06-09T07:05:03.225Z,78.48
2018-06-09T07:06:08.755Z,78.67
2018-06-09T07:07:14.267Z,78.86
2018-06-09T07:08:19.780Z,78.58
2018-06-09T07:09:25.301Z,78.86
2018-06-09T07:10:30.817Z,78.48
2018-06-09T07:11:36.345Z,78.00
2018-06-09T07:12:41.858Z,78.38
2018-06-09T07:13:47.365Z,77.03
2018-06-09T07:14:52.886Z,77.07
2018-06-09T07:15:58.431Z,77.84
2018-06-09T07:17:03.924Z,78.42
2018-06-09T07:18:09.444Z,77.36
2018-06-09T07:19:14.964Z,78.03
2018-06-09T07:20:20.476Z,76.98
2018-06-09T07:21:26.017Z,78.23
2018-06-09T07:22:31.521Z,78.03
2018-06-09T07:23:37.041Z,77.17
2018-06-09T07:24:42.557Z,76.50
2018-06-09T07:25:48.069Z,76.34
2018-06-09T07:26:53.598Z,75.82
2018-06-09T07:27:59.111Z,76.05
2018-06-09T07:29:04.627Z,75.85
2018-06-09T07:30:10.146Z,76.05
2018-06-09T07:31:15.665Z,76.34
2018-06-09T07:32:21.183Z,76.24
2018-06-09T07:33:26.703Z,76.82
2018-06-09T07:34:32.224Z,77.01
2018-06-09T07:35:37.741Z,76.82
2018-06-09T07:36:43.257Z,75.85
2018-06-09T07:37:48.787Z,76.18
2018-06-09T07:38:54.304Z,76.18
2018-06-09T07:39:59.812Z,75.47
2018-06-09T07:41:05.333Z,76.09
2018-06-09T07:42:10.852Z,75.79
2018-06-09T07:43:16.374Z,75.70
2018-06-09T07:44:21.888Z,75.31
2018-06-09T07:45:27.409Z,75.70
2018-06-09T07:46:32.933Z,75.70
2018-06-09T07:47:38.444Z,75.60
2018-06-09T07:48:43.966Z,76.18
2018-06-09T07:49:49.487Z,76.28
2018-06-09T07:50:55.010Z,75.51
2018-06-09T07:52:00.537Z,75.51
2018-06-09T07:53:06.038Z,75.70
2018-06-09T07:54:11.586Z,76.42
2018-06-09T07:55:17.080Z,76.90
2018-06-09T07:56:22.597Z,74.87
2018-06-09T07:57:28.123Z,74.29
2018-06-09T07:58:33.643Z,73.32
2018-06-09T07:59:39.197Z,73.80
2018-06-09T08:00:44.674Z,74.58
2018-06-09T08:01:50.191Z,74.58
2018-06-09T08:02:55.719Z,74.38
2018-06-09T08:04:01.230Z,74.38
2018-06-09T08:05:06.755Z,74.48
2018-06-09T08:06:12.269Z,75.97
2018-06-09T08:07:17.793Z,75.58
2018-06-09T08:08:23.313Z,76.35
2018-06-09T08:09:28.837Z,75.20
2018-06-09T08:10:34.348Z,74.52
2018-06-09T08:11:39.866Z,75.20
2018-06-09T08:12:45.384Z,75.00
2018-06-09T08:13:50.935Z,74.13
2018-06-09T08:14:56.434Z,72.00
2018-06-09T08:16:01.943Z,71.04
2018-06-09T08:17:07.462Z,71.52
2018-06-09T08:18:12.984Z,72.39
2018-06-09T08:19:18.504Z,72.91
2018-06-09T08:20:24.023Z,72.81
2018-06-09T08:21:29.541Z,71.46
2018-06-09T08:22:35.068Z,71.84
2018-06-09T08:23:40.584Z,71.75
2018-06-09T08:24:46.112Z,71.46
2018-06-09T08:25:51.625Z,71.56
2018-06-09T08:26:57.145Z,70.88
2018-06-09T08:28:02.664Z,70.78
2018-06-09T08:29:08.212Z,71.26
2018-06-09T08:30:13.705Z,71.84
2018-06-09T08:31:19.236Z,72.14
2018-06-09T08:32:24.741Z,70.78
2018-06-09T08:33:30.257Z,71.17
2018-06-09T08:34:35.779Z,71.59
2018-06-09T08:35:41.296Z,71.69
2018-06-09T08:36:46.817Z,71.40
2018-06-09T08:37:52.348Z,71.78
2018-06-09T08:38:57.867Z,71.59
2018-06-09T08:40:03.380Z,71.59
2018-06-09T08:41:08.894Z,70.43
2018-06-09T08:42:14.414Z,70.34
2018-06-09T08:43:19.937Z,70.82
2018-06-09T08:44:25.454Z,70.04
2018-06-09T08:45:30.971Z,70.62
2018-06-09T08:46:36.497Z,70.72
2018-06-09T08:47:42.015Z,71.30
2018-06-09T08:48:47.535Z,71.78
2018-06-09T08:49:53.058Z,71.69
2018-06-09T08:50:58.571Z,71.01
2018-06-09T08:52:04.091Z,70.82
2018-06-09T08:53:09.617Z,70.53
2018-06-09T08:54:15.141Z,71.59
2018-06-09T08:55:20.658Z,71.11
2018-06-09T08:56:26.185Z,71.01
2018-06-09T08:57:31.706Z,70.92
2018-06-09T08:58:37.210Z,70.04
2018-06-09T08:59:42.779Z,70.62
2018-06-09T09:00:48.269Z,70.95
2018-06-09T09:01:53.771Z,70.66
2018-06-09T09:02:59.308Z,71.34
2018-06-09T09:04:04.812Z,70.86
2018-06-09T09:05:10.344Z,70.56
2018-06-09T09:06:15.856Z,70.56
2018-06-09T09:07:21.372Z,70.50
2018-06-09T09:08:26.898Z,70.37
2018-06-09T09:09:32.412Z,70.31
2018-06-09T09:10:37.937Z,69.98
2018-06-09T09:11:43.454Z,70.27
2018-06-09T09:12:48.970Z,70.08
2018-06-09T09:13:54.504Z,71.04
2018-06-09T09:15:00.027Z,71.28
2018-06-09T09:16:05.535Z,70.76
2018-06-09T09:17:11.049Z,70.31
2018-06-09T09:18:16.587Z,70.66
2018-06-09T09:19:22.101Z,71.28
2018-06-09T09:20:27.614Z,70.98
2018-06-09T09:21:33.134Z,70.70
2018-06-09T09:22:38.652Z,70.40
2018-06-09T09:23:44.170Z,71.28
2018-06-09T09:24:49.689Z,70.60
2018-06-09T09:25:55.288Z,69.82
2018-06-09T09:27:00.736Z,69.15
2018-06-09T09:28:06.254Z,70.15
2018-06-09T09:29:11.771Z,70.63
2018-06-09T09:30:17.291Z,70.44
2018-06-09T09:31:22.812Z,69.76
2018-06-09T09:32:28.341Z,70.15
2018-06-09T09:33:33.853Z,70.15
2018-06-09T09:34:39.393Z,68.89
2018-06-09T09:35:44.946Z,68.70
2018-06-09T09:36:50.415Z,68.21
2018-06-09T09:37:55.943Z,67.82
2018-06-09T09:39:01.456Z,67.14
2018-06-09T09:40:06.986Z,66.75
2018-06-09T09:41:12.690Z,67.53
2018-06-09T09:42:18.024Z,66.56
2018-06-09T09:43:23.539Z,66.47
2018-06-09T09:44:29.055Z,67.34
2018-06-09T09:45:34.589Z,66.79
2018-06-09T09:46:40.101Z,66.56
2018-06-09T09:47:45.625Z,66.99
2018-06-09T09:48:51.347Z,67.24
2018-06-09T09:49:56.666Z,68.54
2018-06-09T09:51:02.187Z,68.24
2018-06-09T09:52:07.709Z,68.92
2018-06-09T09:53:13.222Z,68.54
2018-06-09T09:54:18.747Z,68.44
2018-06-09T09:55:24.277Z,67.27
2018-06-09T09:56:29.791Z,66.50
2018-06-09T09:57:35.356Z,66.30
2018-06-09T09:58:40.829Z,66.50
2018-06-09T09:59:46.351Z,66.89
2018-06-09T10:00:51.865Z,67.18
2018-06-09T10:01:57.396Z,66.82
2018-06-09T10:03:02.906Z,66.14
2018-06-09T10:04:08.442Z,66.44
2018-06-09T10:05:13.966Z,65.72
2018-06-09T10:06:19.474Z,66.34
2018-06-09T10:07:24.995Z,65.27
2018-06-09T10:08:30.517Z,65.08
2018-06-09T10:09:36.032Z,65.47
2018-06-09T10:10:41.579Z,64.98
2018-06-09T10:11:47.080Z,63.62
2018-06-09T10:12:52.593Z,63.53
2018-06-09T10:13:58.130Z,63.43
2018-06-09T10:15:03.643Z,62.49
2018-06-09T10:16:09.166Z,63.26
2018-06-09T10:17:14.676Z,64.04
2018-06-09T10:18:20.204Z,63.56
2018-06-09T10:19:25.724Z,63.95
2018-06-09T10:20:31.247Z,64.53
2018-06-09T10:21:36.859Z,63.65
2018-06-09T10:22:42.402Z,63.65
2018-06-09T10:23:47.813Z,62.98
2018-06-09T10:24:53.332Z,63.65
2018-06-09T10:25:58.851Z,63.20
2018-06-09T10:27:04.367Z,63.26
2018-06-09T10:28:09.899Z,63.29
2018-06-09T10:29:15.414Z,63.01
2018-06-09T10:30:20.934Z,63.49
2018-06-09T10:31:26.479Z,63.10
2018-06-09T10:32:31.991Z,63.88
2018-06-09T10:33:37.495Z,64.36
2018-06-09T10:34:43.016Z,63.59
2018-06-09T10:35:48.537Z,63.88
2018-06-09T10:36:54.056Z,62.81
2018-06-09T10:37:59.579Z,63.13
2018-06-09T10:39:05.106Z,62.26
2018-06-09T10:40:10.634Z,62.26
2018-06-09T10:41:16.137Z,62.35
2018-06-09T10:42:21.665Z,62.26
2018-06-09T10:43:27.191Z,62.26
2018-06-09T10:44:32.706Z,62.94
2018-06-09T10:45:38.225Z,62.55
2018-06-09T10:46:43.747Z,61.97
2018-06-09T10:47:49.266Z,63.52
2018-06-09T10:48:54.789Z,62.84
2018-06-09T10:50:00.311Z,62.29
2018-06-09T10:51:05.839Z,62.74
2018-06-09T10:52:11.357Z,62.97
2018-06-09T10:53:16.876Z,62.77
2018-06-09T10:54:22.399Z,62.97
2018-06-09T10:55:27.925Z,63.17
2018-06-09T10:56:33.445Z,62.97
2018-06-09T10:57:38.967Z,61.90
2018-06-09T10:58:44.492Z,61.61
2018-06-09T10:59:50.007Z,61.61
2018-06-09T11:00:55.530Z,62.00
2018-06-09T11:02:01.058Z,60.15
2018-06-09T11:03:06.576Z,60.93
2018-06-09T11:04:12.089Z,61.61
2018-06-09T11:05:17.618Z,61.71
2018-06-09T11:06:23.139Z,60.83
2018-06-09T11:07:28.664Z,61.51
2018-06-09T11:08:34.175Z,61.02
2018-06-09T11:09:39.714Z,60.44
2018-06-09T11:10:45.221Z,60.44
2018-06-09T11:11:50.743Z,60.44
2018-06-09T11:12:56.273Z,60.15
2018-06-09T11:14:01.797Z,60.57
2018-06-09T11:15:07.305Z,60.93
2018-06-09T11:16:12.825Z,60.47
2018-06-09T11:17:18.349Z,60.67
2018-06-09T11:18:23.868Z,61.35
2018-06-09T11:19:29.405Z,60.96
2018-06-09T11:20:34.916Z,58.82
2018-06-09T11:21:40.440Z,59.21
2018-06-09T11:22:45.976Z,58.92
2018-06-09T11:23:51.483Z,59.50
2018-06-09T11:24:57.013Z,58.33
2018-06-09T11:26:02.525Z,58.82
2018-06-09T11:27:08.054Z,59.43
2018-06-09T11:28:13.568Z,58.75
2018-06-09T11:29:19.088Z,58.36
2018-06-09T11:30:24.609Z,59.43
2018-06-09T11:31:30.135Z,59.63
2018-06-09T11:32:35.670Z,58.95
2018-06-09T11:33:41.184Z,59.92
2018-06-09T11:34:46.705Z,58.75
2018-06-09T11:35:52.225Z,59.14
2018-06-09T11:36:57.757Z,59.53
2018-06-09T11:38:03.266Z,60.53
2018-06-09T11:39:08.788Z,60.24
2018-06-09T11:40:14.316Z,60.82
2018-06-09T11:41:19.835Z,60.53
2018-06-09T11:42:25.354Z,60.24
2018-06-09T11:43:30.876Z,60.14
2018-06-09T11:44:36.401Z,60.92
2018-06-09T11:45:41.928Z,61.11
2018-06-09T11:46:47.447Z,60.63
2018-06-09T11:47:52.977Z,60.82
2018-06-09T11:48:58.498Z,60.63
2018-06-09T11:50:04.049Z,59.69
2018-06-09T11:51:09.535Z,59.69
2018-06-09T11:52:15.074Z,58.42
2018-06-09T11:53:20.577Z,58.03
2018-06-09T11:54:26.094Z,56.96
2018-06-09T11:55:31.633Z,58.22
2018-06-09T11:56:37.154Z,58.87
2018-06-09T11:57:42.680Z,58.97
2018-06-09T11:58:48.194Z,59.27
2018-06-09T11:59:53.717Z,59.46
2018-06-09T12:00:59.236Z,60.24
2018-06-09T12:02:04.753Z,59.95
2018-06-09T12:03:10.275Z,60.72
2018-06-09T12:04:15.806Z,61.02
2018-06-09T12:05:21.326Z,60.11
2018-06-09T12:06:26.851Z,60.05
2018-06-09T12:07:32.375Z,59.36
2018-06-09T12:08:37.894Z,59.56
2018-06-09T12:09:43.412Z,58.49
2018-06-09T12:10:48.942Z,59.85
2018-06-09T12:11:54.461Z,58.20
2018-06-09T12:12:59.990Z,58.10
2018-06-09T12:14:05.520Z,59.17
2018-06-09T12:15:11.039Z,60.53
2018-06-09T12:16:16.550Z,60.17
2018-06-09T12:17:22.121Z,60.36
2018-06-09T12:18:27.591Z,59.39
2018-06-09T12:19:33.111Z,58.42
2018-06-09T12:20:38.635Z,58.42
2018-06-09T12:21:44.175Z,58.32
2018-06-09T12:22:49.713Z,57.93
2018-06-09T12:23:55.201Z,58.71
2018-06-09T12:25:00.749Z,58.61
2018-06-09T12:26:06.252Z,58.42
2018-06-09T12:27:11.773Z,59.49
2018-06-09T12:28:17.304Z,59.30
2018-06-09T12:29:22.816Z,59.10
2018-06-09T12:30:28.354Z,59.03
2018-06-09T12:31:33.866Z,59.72
2018-06-09T12:32:39.394Z,58.74
2018-06-09T12:33:44.909Z,58.25
2018-06-09T12:34:50.427Z,58.15
2018-06-09T12:35:55.958Z,58.25
2018-06-09T12:37:01.478Z,58.45
2018-06-09T12:38:07.000Z,58.25
2018-06-09T12:39:12.536Z,58.64
2018-06-09T12:40:18.056Z,58.94
2018-06-09T12:41:23.583Z,58.94
2018-06-09T12:42:29.117Z,60.10
2018-06-09T12:43:34.623Z,59.33
2018-06-09T12:44:40.133Z,60.00
2018-06-09T12:45:45.658Z,59.52
2018-06-09T12:46:51.181Z,59.52
2018-06-09T12:47:56.704Z,59.03
2018-06-09T12:49:02.243Z,59.23
2018-06-09T12:50:07.760Z,58.54
2018-06-09T12:51:13.277Z,58.25
2018-06-09T12:52:18.796Z,58.35
2018-06-09T12:53:24.329Z,58.35
2018-06-09T12:54:29.840Z,59.06
2018-06-09T12:55:35.364Z,60.78
2018-06-09T12:56:40.896Z,59.42
2018-06-09T12:57:46.416Z,58.35
2018-06-09T12:58:51.951Z,59.23
2018-06-09T12:59:57.457Z,59.26
2018-06-09T13:01:02.979Z,58.67
2018-06-09T13:02:08.674Z,58.97
2018-06-09T13:03:14.024Z,59.74
2018-06-09T13:04:19.556Z,60.23
2018-06-09T13:05:25.071Z,59.26
2018-06-09T13:06:30.619Z,57.99
2018-06-09T13:07:36.126Z,58.67
2018-06-09T13:08:41.640Z,58.48
2018-06-09T13:09:47.218Z,58.18
2018-06-09T13:10:52.684Z,57.21
2018-06-09T13:11:58.208Z,57.79
2018-06-09T13:13:03.746Z,58.97
2018-06-09T13:14:09.296Z,58.67
2018-06-09T13:15:14.779Z,59.06
2018-06-09T13:16:20.305Z,59.55
2018-06-09T13:17:25.825Z,58.28
2018-06-09T13:18:31.346Z,58.77
2018-06-09T13:19:36.956Z,57.70
2018-06-09T13:20:42.397Z,57.89
2018-06-09T13:21:47.922Z,58.97
2018-06-09T13:22:53.444Z,59.74
2018-06-09T13:23:58.965Z,58.97
2018-06-09T13:25:04.492Z,58.09
2018-06-09T13:26:10.025Z,58.18
2018-06-09T13:27:15.533Z,58.18
2018-06-09T13:28:21.054Z,58.67
2018-06-09T13:29:26.581Z,58.28
2018-06-09T13:30:32.109Z,59.06
2018-06-09T13:31:37.624Z,59.06
2018-06-09T13:32:43.151Z,59.06
2018-06-09T13:33:48.671Z,59.35
2018-06-09T13:34:54.209Z,57.70
2018-06-09T13:35:59.902Z,58.09
2018-06-09T13:37:05.251Z,58.28
2018-06-09T13:38:10.764Z,58.09
2018-06-09T13:39:16.289Z,58.38
2018-06-09T13:40:21.822Z,59.64
2018-06-09T13:41:27.368Z,60.23
2018-06-09T13:42:32.856Z,59.16
2018-06-09T13:43:38.394Z,59.74
2018-06-09T13:44:43.908Z,59.45
2018-06-09T13:45:49.431Z,60.62
2018-06-09T13:46:55.024Z,61.01
2018-06-09T13:48:00.470Z,61.01
2018-06-09T13:49:06.002Z,59.55
2018-06-09T13:50:11.526Z,59.06
2018-06-09T13:51:17.044Z,58.48
2018-06-09T13:52:22.565Z,58.09
2018-06-09T13:53:28.091Z,59.64
2018-06-09T13:54:33.674Z,58.48
2018-06-09T13:55:39.164Z,58.18
2018-06-09T13:56:44.655Z,59.45
2018-06-09T13:57:50.181Z,59.74
2018-06-09T13:58:55.710Z,58.38
2018-06-09T14:00:01.223Z,58.67
2018-06-09T14:01:06.755Z,60.33
2018-06-09T14:02:12.273Z,59.55
2018-06-09T14:03:17.800Z,60.33